createdAt,value
2022-11-21T00:01:30.290Z,6.70
2022-11-21T00:03:58.160Z,6.70
2022-11-21T00:06:27.408Z,6.70
2022-11-21T00:08:56.385Z,6.70
2022-11-21T00:11:24.139Z,6.70
2022-11-21T00:13:51.953Z,6.70
2022-11-21T00:16:19.704Z,6.70
2022-11-21T00:18:47.515Z,6.80
2022-11-21T00:21:17.083Z,6.80
2022-11-21T00:23:47.157Z,6.80
2022-11-21T00:26:16.709Z,6.80
2022-11-21T00:28:45.024Z,6.90
2022-11-21T00:31:20.037Z,6.90
2022-11-21T00:33:47.891Z,6.90
2022-11-21T00:36:15.659Z,6.90
2022-11-21T00:38:43.577Z,6.90
2022-11-21T00:41:12.801Z,6.90
2022-11-21T00:43:40.557Z,7.00
2022-11-21T00:46:08.474Z,7.00
2022-11-21T00:48:36.302Z,7.00
2022-11-21T00:51:04.202Z,7.00
2022-11-21T00:53:32.105Z,6.90
2022-11-21T00:56:00.260Z,6.90
2022-11-21T00:58:29.573Z,6.90
2022-11-21T01:01:05.605Z,6.80
2022-11-21T01:03:34.782Z,6.80
2022-11-21T01:06:04.902Z,6.80
2022-11-21T01:08:32.790Z,6.80
2022-11-21T01:11:04.038Z,6.80
2022-11-21T01:13:33.589Z,6.80
2022-11-21T01:16:05.237Z,6.80
2022-11-21T01:18:33.443Z,6.80
2022-11-21T01:21:01.893Z,6.70
2022-11-21T01:23:29.923Z,6.70
2022-11-21T01:26:02.441Z,6.70
2022-11-21T01:28:30.293Z,6.70
2022-11-21T01:31:06.097Z,6.70
2022-11-21T01:33:34.469Z,6.70
2022-11-21T01:36:11.753Z,6.70
2022-11-21T01:38:40.181Z,6.70
2022-11-21T01:41:08.396Z,6.70
2022-11-21T01:43:36.496Z,6.60
2022-11-21T01:46:11.549Z,6.60
2022-11-21T01:48:43.714Z,6.60
2022-11-21T01:51:17.684Z,6.60
2022-11-21T01:53:49.703Z,6.60
2022-11-21T01:56:17.626Z,6.60
2022-11-21T01:58:47.765Z,6.60
2022-11-21T02:01:17.007Z,6.60
2022-11-21T02:03:47.567Z,6.60
2022-11-21T02:06:15.492Z,6.60
2022-11-21T02:08:45.122Z,6.60
2022-11-21T02:11:19.568Z,6.60
2022-11-21T02:13:47.448Z,6.60
2022-11-21T02:16:16.617Z,6.50
2022-11-21T02:18:44.597Z,6.50
2022-11-21T02:21:23.060Z,6.50
2022-11-21T02:24:00.524Z,6.60
2022-11-21T02:26:30.332Z,6.50
2022-11-21T02:28:59.019Z,6.50
2022-11-21T02:31:26.982Z,6.50
2022-11-21T02:33:54.851Z,6.60
2022-11-21T02:36:38.665Z,6.60
2022-11-21T02:39:07.985Z,6.50
2022-11-21T02:41:41.569Z,6.50
2022-11-21T02:44:16.980Z,6.50
2022-11-21T02:46:50.117Z,6.60
2022-11-21T02:49:25.396Z,6.60
2022-11-21T02:51:53.255Z,6.60
2022-11-21T02:54:21.033Z,6.60
2022-11-21T02:56:50.288Z,6.60
2022-11-21T02:59:18.194Z,6.70
2022-11-21T03:01:46.016Z,6.70
2022-11-21T03:04:13.863Z,6.70
2022-11-21T03:06:41.683Z,6.70
2022-11-21T03:09:09.567Z,6.70
2022-11-21T03:11:37.427Z,6.80
2022-11-21T03:14:06.662Z,6.80
2022-11-21T03:16:34.532Z,6.80
2022-11-21T03:19:02.543Z,6.80
2022-11-21T03:21:30.442Z,6.80
2022-11-21T03:23:58.317Z,6.80
2022-11-21T03:26:26.100Z,6.80
2022-11-21T03:36:39.252Z,6.90
2022-11-21T03:39:08.152Z,6.90
2022-11-21T03:41:36.015Z,6.90
2022-11-21T03:44:06.345Z,6.90
2022-11-21T03:46:36.483Z,6.90
2022-11-21T03:49:04.862Z,7.00
2022-11-21T03:51:33.326Z,7.00
2022-11-21T03:54:02.869Z,7.00
2022-11-21T03:56:30.999Z,7.00
2022-11-21T03:58:58.973Z,7.00
2022-11-21T04:01:28.101Z,7.00
2022-11-21T04:03:58.208Z,7.00
2022-11-21T04:06:26.357Z,7.00
2022-11-21T04:08:54.763Z,7.00
2022-11-21T04:11:24.599Z,7.00
2022-11-21T04:13:52.768Z,7.10
2022-11-21T04:16:21.197Z,7.10
2022-11-21T04:18:49.038Z,7.10
2022-11-21T04:21:16.857Z,7.10
2022-11-21T04:23:44.854Z,7.10
2022-11-21T04:26:12.672Z,7.10
2022-11-21T04:28:41.841Z,7.00
2022-11-21T04:31:11.418Z,7.10
2022-11-21T04:33:39.727Z,7.10
2022-11-21T04:36:07.971Z,7.10
2022-11-21T04:38:35.808Z,7.10
2022-11-21T04:41:03.586Z,7.10
2022-11-21T04:43:31.383Z,7.10
2022-11-21T04:46:00.526Z,7.20
2022-11-21T04:48:28.393Z,7.20
2022-11-21T04:50:56.157Z,7.20
2022-11-21T04:53:23.964Z,7.20
2022-11-21T04:55:51.818Z,7.10
2022-11-21T04:58:19.624Z,7.10
2022-11-21T05:00:47.391Z,7.10
2022-11-21T05:03:16.662Z,7.10
2022-11-21T05:05:44.504Z,7.10
2022-11-21T05:08:12.282Z,7.10
2022-11-21T05:10:54.018Z,7.10
2022-11-21T05:13:21.999Z,7.10
2022-11-21T05:15:51.618Z,7.10
2022-11-21T05:18:21.119Z,7.10
2022-11-21T05:20:51.466Z,7.10
2022-11-21T05:23:19.284Z,7.10
2022-11-21T05:25:49.530Z,7.10
2022-11-21T05:28:17.344Z,7.10
2022-11-21T05:30:45.155Z,7.10
2022-11-21T05:33:12.936Z,7.10
2022-11-21T05:35:43.632Z,7.10
2022-11-21T05:38:11.787Z,7.10
2022-11-21T05:40:39.669Z,7.10
2022-11-21T05:43:25.507Z,7.10
2022-11-21T05:45:53.591Z,7.10
2022-11-21T12:47:15.345Z,12.50
2022-11-21T12:50:13.116Z,12.40
2022-11-21T12:53:00.541Z,12.30
2022-11-21T12:55:37.352Z,12.40
2022-11-21T12:58:26.522Z,12.40
2022-11-21T13:01:21.190Z,12.30
2022-11-21T13:04:00.534Z,12.30
2022-11-21T13:06:31.592Z,12.40
2022-11-21T13:09:02.909Z,12.40
2022-11-21T13:11:56.926Z,12.50
2022-11-21T13:14:30.934Z,12.60
2022-11-21T13:17:30.369Z,12.60
2022-11-21T13:20:03.835Z,12.60
2022-11-21T13:22:51.528Z,12.50
2022-11-21T13:25:47.677Z,12.50
2022-11-21T13:28:33.928Z,12.40
2022-11-21T13:31:03.918Z,12.30
2022-11-21T13:33:51.309Z,12.10
2022-11-21T13:36:45.364Z,12.00
2022-11-21T13:39:35.586Z,11.80
2022-11-21T13:42:23.824Z,11.70
2022-11-21T13:44:52.205Z,11.60
2022-11-21T13:47:56.997Z,11.50
2022-11-21T13:51:22.337Z,11.40
2022-11-21T13:54:16.343Z,11.40
2022-11-21T13:57:02.495Z,11.40
2022-11-21T13:59:53.525Z,11.30
2022-11-21T14:02:55.804Z,11.30
2022-11-21T14:05:42.511Z,11.20
2022-11-21T14:08:20.717Z,11.10
2022-11-21T14:10:52.624Z,11.10
2022-11-21T14:13:27.862Z,11.10
2022-11-21T14:16:17.780Z,10.90
2022-11-21T14:18:47.424Z,10.90
2022-11-21T14:21:22.256Z,10.70
2022-11-21T14:23:50.172Z,10.60
2022-11-21T14:26:21.744Z,10.60
2022-11-21T14:28:49.587Z,10.60
2022-11-21T14:31:17.356Z,10.50
2022-11-21T14:33:47.351Z,10.50
2022-11-21T14:36:17.661Z,10.40
2022-11-21T14:39:07.641Z,10.30
2022-11-21T14:41:40.654Z,10.20
2022-11-21T14:44:20.707Z,10.20
2022-11-21T14:46:49.566Z,10.00
2022-11-21T14:49:23.831Z,10.00
2022-11-21T14:51:54.544Z,9.90
2022-11-21T14:54:28.966Z,9.90
2022-11-21T14:57:01.154Z,9.80
2022-11-21T14:59:33.999Z,9.70
2022-11-21T15:02:05.000Z,9.60
2022-11-21T15:04:35.502Z,9.50
2022-11-21T15:07:04.424Z,9.40
2022-11-21T15:12:32.168Z,9.30
2022-11-21T15:15:03.893Z,9.20
2022-11-21T15:17:32.448Z,9.10
2022-11-21T15:20:21.535Z,9.00
2022-11-21T15:22:50.475Z,8.90
2022-11-21T15:25:23.683Z,8.90
2022-11-21T15:27:53.901Z,8.80
2022-11-21T15:30:26.041Z,8.70
2022-11-21T15:33:09.439Z,8.60
2022-11-21T15:35:47.392Z,8.60
2022-11-21T15:38:28.709Z,8.60
2022-11-21T15:41:01.424Z,8.50
2022-11-21T15:43:45.161Z,8.40
2022-11-21T15:46:21.595Z,8.30
2022-11-21T15:48:51.199Z,8.30
2022-11-21T15:54:11.534Z,8.20
2022-11-21T15:56:40.354Z,8.10
2022-11-21T15:57:15.394Z,8.30
2022-11-21T15:59:10.193Z,8.10
2022-11-21T16:01:38.297Z,8.10
2022-11-21T16:04:09.074Z,8.00
2022-11-21T16:06:37.114Z,8.00
2022-11-21T16:09:05.533Z,8.00
2022-11-21T16:11:37.268Z,8.00
2022-11-21T16:14:07.023Z,8.00
2022-11-21T16:16:43.114Z,7.90
2022-11-21T16:19:12.612Z,7.90
2022-11-21T16:21:40.603Z,7.80
2022-11-21T16:24:08.866Z,7.70
2022-11-21T16:26:37.724Z,7.60
2022-11-21T16:29:06.221Z,7.60
2022-11-21T16:31:34.686Z,7.50
2022-11-21T16:34:04.094Z,7.50
2022-11-21T16:36:32.971Z,7.40
2022-11-21T16:39:08.949Z,7.40
2022-11-21T16:41:41.120Z,7.40
2022-11-21T16:44:14.296Z,7.40
2022-11-21T16:46:44.114Z,7.40
2022-11-21T16:49:13.419Z,7.40
2022-11-21T16:51:41.306Z,7.30
2022-11-21T16:54:09.787Z,7.30
2022-11-21T16:56:38.803Z,7.30
2022-11-21T16:59:07.730Z,7.30
2022-11-21T17:01:35.676Z,7.30
2022-11-21T17:04:03.735Z,7.20
2022-11-21T17:06:33.546Z,7.20
2022-11-21T17:09:02.201Z,7.00
2022-11-21T17:11:31.962Z,6.90
2022-11-21T17:14:01.732Z,6.80
2022-11-21T17:16:30.300Z,6.70
2022-11-21T17:19:01.771Z,6.60
2022-11-21T17:21:30.352Z,6.50
2022-11-21T17:23:59.761Z,6.50
2022-11-21T17:26:29.123Z,6.40
2022-11-21T17:28:58.462Z,6.40
2022-11-21T17:31:27.039Z,6.30
2022-11-21T17:33:56.738Z,6.30
2022-11-21T17:36:26.875Z,6.30
2022-11-21T17:38:55.372Z,6.30
2022-11-21T17:41:25.834Z,6.20
2022-11-21T17:43:55.423Z,6.20
2022-11-21T17:46:26.388Z,6.30
2022-11-21T17:48:58.295Z,6.30
2022-11-21T17:51:29.000Z,6.30
2022-11-21T17:53:57.294Z,6.30
2022-11-21T17:56:29.111Z,6.30
2022-11-21T17:58:57.681Z,6.30
2022-11-21T18:01:26.417Z,6.30
2022-11-21T18:03:56.667Z,6.30
2022-11-21T18:06:25.851Z,6.40
2022-11-21T18:08:54.203Z,6.40
2022-11-21T18:11:23.063Z,6.40
2022-11-21T18:13:53.355Z,6.30
2022-11-21T18:16:23.962Z,6.40
2022-11-21T18:18:52.580Z,6.40
2022-11-21T18:21:25.492Z,6.40
2022-11-21T18:23:54.856Z,6.50
2022-11-21T18:26:25.210Z,6.40
2022-11-21T18:29:20.610Z,6.50
2022-11-21T18:31:45.585Z,6.50
2022-11-21T18:34:14.596Z,6.50
2022-11-21T18:36:42.559Z,6.50
2022-11-21T18:39:15.456Z,6.50
2022-11-21T18:41:44.185Z,6.50
2022-11-21T18:44:20.147Z,6.50
2022-11-21T18:46:50.163Z,6.50
2022-11-21T18:49:18.312Z,6.50
2022-11-21T18:51:48.122Z,6.50
2022-11-21T18:54:16.972Z,6.50
2022-11-21T18:56:47.231Z,6.50
2022-11-21T18:59:16.883Z,6.50
2022-11-21T19:01:44.945Z,6.50
2022-11-21T19:04:16.725Z,6.50
2022-11-21T19:06:45.734Z,6.60
2022-11-21T19:09:15.204Z,6.60
2022-11-21T19:11:43.320Z,6.60
2022-11-21T19:14:11.158Z,6.70
2022-11-21T19:16:45.564Z,6.70
2022-11-21T19:22:04.628Z,6.70
2022-11-21T19:24:34.380Z,6.70
2022-11-21T19:27:03.789Z,6.80
2022-11-21T19:29:34.220Z,6.80
2022-11-21T19:32:03.774Z,6.80
2022-11-21T19:34:31.671Z,6.80
2022-11-21T19:36:59.508Z,6.80
2022-11-21T19:39:27.913Z,6.90
2022-11-21T19:41:56.162Z,6.90
2022-11-21T19:44:24.368Z,6.80
2022-11-21T19:46:54.350Z,6.80
2022-11-21T19:49:23.730Z,6.90
2022-11-21T19:51:51.665Z,6.90
2022-11-21T19:54:19.609Z,7.00
2022-11-21T19:56:47.810Z,7.00
2022-11-21T19:59:16.270Z,7.10
2022-11-21T20:01:49.508Z,7.20
2022-11-21T20:04:30.055Z,7.20
2022-11-21T20:07:03.411Z,7.30
2022-11-21T20:09:34.880Z,7.30
2022-11-21T20:12:03.606Z,7.40
2022-11-21T20:14:31.763Z,7.40
2022-11-21T20:16:59.726Z,7.40
2022-11-21T20:19:29.574Z,7.40
2022-11-21T20:21:57.931Z,7.50
2022-11-21T20:24:25.794Z,7.50
2022-11-21T20:26:54.229Z,7.40
2022-11-21T20:29:22.336Z,7.40
2022-11-21T20:31:50.265Z,7.50
2022-11-21T20:34:18.601Z,7.50
2022-11-21T20:36:48.051Z,7.40
2022-11-21T20:39:18.022Z,7.40
2022-11-21T20:41:47.023Z,7.40
2022-11-21T20:47:08.914Z,7.30
2022-11-21T20:49:38.767Z,7.40
2022-11-21T20:53:36.932Z,7.40
2022-11-21T20:54:57.958Z,7.40
2022-11-21T20:57:27.500Z,7.40
2022-11-21T20:59:55.572Z,7.50
2022-11-21T21:02:23.516Z,7.40
2022-11-21T21:04:51.543Z,7.40
2022-11-21T21:07:21.140Z,7.40
2022-11-21T21:09:49.198Z,7.30
2022-11-21T21:12:17.150Z,7.30
2022-11-21T21:14:45.128Z,7.30
2022-11-21T21:17:13.067Z,7.30
2022-11-21T21:19:41.045Z,7.30
2022-11-21T21:22:09.828Z,7.30
2022-11-21T21:24:41.678Z,7.30
2022-11-21T21:27:09.809Z,7.30
2022-11-21T21:29:38.857Z,7.30
2022-11-21T21:32:08.509Z,7.20
2022-11-21T21:34:36.459Z,7.20
2022-11-21T21:37:04.336Z,7.20
2022-11-21T21:39:32.257Z,7.30
2022-11-21T21:42:01.418Z,7.30
2022-11-21T21:44:33.181Z,7.30
2022-11-21T21:47:01.747Z,7.30
2022-11-21T21:49:29.625Z,7.40
2022-11-21T21:51:57.507Z,7.40
2022-11-21T21:54:25.421Z,7.40
2022-11-21T21:56:53.286Z,7.30
2022-11-21T21:59:22.548Z,7.40
2022-11-21T22:01:52.531Z,7.40
2022-11-21T22:04:20.502Z,7.40
2022-11-21T22:06:48.452Z,7.40
2022-11-21T22:09:16.553Z,7.40
2022-11-21T22:11:44.459Z,7.50
2022-11-21T22:14:14.104Z,7.50
2022-11-21T22:16:44.060Z,7.50
2022-11-21T22:19:11.988Z,7.40
2022-11-21T22:21:40.174Z,7.50
2022-11-21T22:24:28.948Z,7.50
2022-11-21T22:26:57.706Z,7.50
2022-11-21T22:29:27.130Z,7.60
2022-11-21T22:31:56.583Z,7.50
2022-11-21T22:34:24.791Z,7.50
2022-11-21T22:36:52.612Z,7.50
2022-11-21T22:39:20.989Z,7.50
2022-11-21T22:41:48.831Z,7.50
2022-11-21T22:44:16.847Z,7.50
2022-11-21T22:46:44.971Z,7.50
2022-11-21T22:49:14.325Z,7.60
2022-11-21T22:51:42.215Z,7.60
2022-11-21T22:54:10.266Z,7.50
2022-11-21T22:56:38.265Z,7.50
2022-11-21T22:59:06.160Z,7.50
2022-11-21T23:01:35.093Z,7.50
2022-11-21T23:04:03.132Z,7.50
2022-11-21T23:06:32.796Z,7.60
2022-11-21T23:09:00.688Z,7.60
2022-11-21T23:11:36.317Z,7.60
2022-11-21T23:14:09.052Z,7.60
2022-11-21T23:16:36.992Z,7.70
2022-11-21T23:19:05.033Z,7.70
2022-11-21T23:21:34.493Z,7.70
2022-11-21T23:24:02.558Z,7.70
2022-11-21T23:26:30.525Z,7.70
2022-11-21T23:29:01.333Z,7.70
2022-11-21T23:31:33.480Z,7.70
2022-11-21T23:34:01.344Z,7.70
2022-11-21T23:36:29.323Z,7.80
2022-11-21T23:38:59.293Z,7.80
2022-11-21T23:41:27.069Z,7.80
2022-11-21T23:43:54.974Z,7.80
2022-11-21T23:46:22.918Z,7.80
2022-11-21T23:48:50.860Z,7.90
2022-11-21T23:51:18.754Z,7.90
2022-11-21T23:53:46.801Z,7.80
2022-11-21T23:56:18.601Z,7.80
2022-11-21T23:58:46.491Z,7.80
